Blue Diamond, Kentucky
Current Conditions -  °F | °C
As of 10:53 AM on Saturday 22 Nov 2014 (Local Time) from KJKL Reporting Station
Few Clouds Few Clouds  
Wind Chill: 51°   Ceiling: Unl
Heat Index: 51°   Visibility: 10mi
Dew Point: 23°   Wind: 3mph
Humidity: 33%   Direction: NA
Pressure: 30.35"   Gusts: NA
Location:  37.3117°N, 83.2191°W
Report Text: KJKL 221553Z AUTO VRB03KT 10SM FEW090 11/M05 A3035 RMK AO2 SLP282 T01061050
Loading
Personal Weather Stations






























Interactive Weather Map New forecast layout! Learn more

10-Day Weather Forecast

Advertisements
Track Severe Weather on mobile